sensor_id;sensor_type;location;lat;lon;timestamp;P1;durP1;ratioP1;P2;durP2;ratioP2
13641;SDS011;6894;52.196;9.904;2023-09-19T00:00:06;2.63;;;0.60;;
13641;SDS011;6894;52.196;9.904;2023-09-19T00:02:33;1.63;;;0.73;;
13641;SDS011;6894;52.196;9.904;2023-09-19T00:05:01;1.43;;;0.80;;
13641;SDS011;6894;52.196;9.904;2023-09-19T00:07:28;1.80;;;1.00;;
13641;SDS011;6894;52.196;9.904;2023-09-19T00:09:55;1.00;;;0.70;;
13641;SDS011;6894;52.196;9.904;2023-09-19T00:12:22;1.57;;;0.77;;
13641;SDS011;6894;52.196;9.904;2023-09-19T00:14:48;1.10;;;0.67;;
13641;SDS011;6894;52.196;9.904;2023-09-19T00:17:17;1.37;;;0.93;;
13641;SDS011;6894;52.196;9.904;2023-09-19T00:19:44;1.90;;;1.00;;
13641;SDS011;6894;52.196;9.904;2023-09-19T00:22:11;2.07;;;1.37;;
13641;SDS011;6894;52.196;9.904;2023-09-19T00:24:40;3.33;;;1.10;;
13641;SDS011;6894;52.196;9.904;2023-09-19T00:27:07;1.07;;;0.97;;
13641;SDS011;6894;52.196;9.904;2023-09-19T00:29:34;2.63;;;0.93;;
13641;SDS011;6894;52.196;9.904;2023-09-19T00:32:00;1.87;;;1.03;;
13641;SDS011;6894;52.196;9.904;2023-09-19T00:34:30;2.97;;;1.40;;
13641;SDS011;6894;52.196;9.904;2023-09-19T00:36:59;2.00;;;1.60;;
13641;SDS011;6894;52.196;9.904;2023-09-19T00:39:26;2.13;;;1.30;;
13641;SDS011;6894;52.196;9.904;2023-09-19T00:41:56;2.27;;;1.67;;
13641;SDS011;6894;52.196;9.904;2023-09-19T00:44:23;3.37;;;1.87;;
13641;SDS011;6894;52.196;9.904;2023-09-19T00:46:49;3.60;;;2.10;;
13641;SDS011;6894;52.196;9.904;2023-09-19T00:49:16;2.97;;;1.70;;
13641;SDS011;6894;52.196;9.904;2023-09-19T00:51:46;2.50;;;1.70;;
13641;SDS011;6894;52.196;9.904;2023-09-19T00:54:13;2.90;;;1.77;;
13641;SDS011;6894;52.196;9.904;2023-09-19T00:56:43;2.60;;;1.87;;
13641;SDS011;6894;52.196;9.904;2023-09-19T00:59:11;3.43;;;2.20;;
13641;SDS011;6894;52.196;9.904;2023-09-19T01:01:38;2.30;;;1.67;;
13641;SDS011;6894;52.196;9.904;2023-09-19T01:04:05;3.67;;;1.90;;
13641;SDS011;6894;52.196;9.904;2023-09-19T01:06:32;2.60;;;2.00;;
13641;SDS011;6894;52.196;9.904;2023-09-19T01:09:00;5.13;;;2.60;;
13641;SDS011;6894;52.196;9.904;2023-09-19T01:11:31;2.70;;;2.50;;
13641;SDS011;6894;52.196;9.904;2023-09-19T01:14:08;3.63;;;2.63;;
13641;SDS011;6894;52.196;9.904;2023-09-19T01:16:48;3.20;;;2.30;;
13641;SDS011;6894;52.196;9.904;2023-09-19T01:19:28;4.13;;;2.53;;
13641;SDS011;6894;52.196;9.904;2023-09-19T01:22:21;3.47;;;2.77;;
13641;SDS011;6894;52.196;9.904;2023-09-19T01:25:07;3.23;;;2.60;;
13641;SDS011;6894;52.196;9.904;2023-09-19T01:27:58;3.77;;;2.70;;
13641;SDS011;6894;52.196;9.904;2023-09-19T01:30:39;4.10;;;2.50;;
13641;SDS011;6894;52.196;9.904;2023-09-19T01:33:09;3.93;;;2.33;;
13641;SDS011;6894;52.196;9.904;2023-09-19T01:35:37;2.93;;;2.50;;
13641;SDS011;6894;52.196;9.904;2023-09-19T01:38:04;4.33;;;2.70;;
13641;SDS011;6894;52.196;9.904;2023-09-19T01:40:32;4.10;;;2.87;;
13641;SDS011;6894;52.196;9.904;2023-09-19T01:43:07;3.20;;;2.53;;
13641;SDS011;6894;52.196;9.904;2023-09-19T01:45:42;4.00;;;2.90;;
13641;SDS011;6894;52.196;9.904;2023-09-19T01:48:17;4.23;;;2.87;;
13641;SDS011;6894;52.196;9.904;2023-09-19T01:50:53;4.90;;;2.53;;
13641;SDS011;6894;52.196;9.904;2023-09-19T01:53:26;4.57;;;2.60;;
13641;SDS011;6894;52.196;9.904;2023-09-19T01:55:57;5.43;;;2.90;;
13641;SDS011;6894;52.196;9.904;2023-09-19T01:58:26;5.13;;;2.60;;
13641;SDS011;6894;52.196;9.904;2023-09-19T02:00:59;5.33;;;2.67;;
13641;SDS011;6894;52.196;9.904;2023-09-19T02:03:26;3.30;;;2.50;;
13641;SDS011;6894;52.196;9.904;2023-09-19T02:05:54;6.00;;;2.33;;
13641;SDS011;6894;52.196;9.904;2023-09-19T02:08:21;4.33;;;2.53;;
13641;SDS011;6894;52.196;9.904;2023-09-19T02:10:49;5.60;;;2.93;;
13641;SDS011;6894;52.196;9.904;2023-09-19T02:13:17;4.77;;;2.30;;
13641;SDS011;6894;52.196;9.904;2023-09-19T02:15:45;6.07;;;2.80;;
13641;SDS011;6894;52.196;9.904;2023-09-19T02:18:14;5.93;;;3.00;;
13641;SDS011;6894;52.196;9.904;2023-09-19T02:20:41;5.37;;;2.80;;
13641;SDS011;6894;52.196;9.904;2023-09-19T02:23:08;4.70;;;2.70;;
13641;SDS011;6894;52.196;9.904;2023-09-19T02:25:35;4.53;;;2.30;;
13641;SDS011;6894;52.196;9.904;2023-09-19T02:28:03;9.27;;;2.87;;
13641;SDS011;6894;52.196;9.904;2023-09-19T02:30:30;5.23;;;2.70;;
13641;SDS011;6894;52.196;9.904;2023-09-19T02:32:57;5.17;;;3.03;;
13641;SDS011;6894;52.196;9.904;2023-09-19T02:35:27;5.93;;;2.87;;
13641;SDS011;6894;52.196;9.904;2023-09-19T02:37:58;7.20;;;2.83;;
13641;SDS011;6894;52.196;9.904;2023-09-19T02:40:24;5.10;;;2.90;;
13641;SDS011;6894;52.196;9.904;2023-09-19T02:42:53;5.23;;;2.93;;
13641;SDS011;6894;52.196;9.904;2023-09-19T02:45:21;4.90;;;2.80;;
13641;SDS011;6894;52.196;9.904;2023-09-19T02:47:48;4.33;;;2.73;;
13641;SDS011;6894;52.196;9.904;2023-09-19T02:50:15;6.67;;;2.70;;
13641;SDS011;6894;52.196;9.904;2023-09-19T02:52:44;7.60;;;3.23;;
13641;SDS011;6894;52.196;9.904;2023-09-19T02:55:13;6.33;;;3.57;;
13641;SDS011;6894;52.196;9.904;2023-09-19T02:57:44;4.60;;;3.10;;
13641;SDS011;6894;52.196;9.904;2023-09-19T03:00:12;5.80;;;3.43;;
13641;SDS011;6894;52.196;9.904;2023-09-19T03:02:40;5.43;;;3.10;;
13641;SDS011;6894;52.196;9.904;2023-09-19T03:05:07;4.93;;;3.13;;
13641;SDS011;6894;52.196;9.904;2023-09-19T03:07:36;4.63;;;2.80;;
13641;SDS011;6894;52.196;9.904;2023-09-19T03:10:05;5.87;;;2.60;;
13641;SDS011;6894;52.196;9.904;2023-09-19T03:12:32;4.30;;;2.93;;
13641;SDS011;6894;52.196;9.904;2023-09-19T03:14:59;6.70;;;3.07;;
13641;SDS011;6894;52.196;9.904;2023-09-19T03:17:26;3.10;;;2.30;;
13641;SDS011;6894;52.196;9.904;2023-09-19T03:19:53;5.47;;;2.80;;
13641;SDS011;6894;52.196;9.904;2023-09-19T03:22:20;4.20;;;3.00;;
13641;SDS011;6894;52.196;9.904;2023-09-19T03:24:46;3.93;;;2.93;;
13641;SDS011;6894;52.196;9.904;2023-09-19T03:27:15;3.63;;;3.07;;
13641;SDS011;6894;52.196;9.904;2023-09-19T03:29:42;4.67;;;3.60;;
13641;SDS011;6894;52.196;9.904;2023-09-19T03:32:08;4.53;;;3.77;;
13641;SDS011;6894;52.196;9.904;2023-09-19T03:34:36;6.87;;;4.30;;
13641;SDS011;6894;52.196;9.904;2023-09-19T03:37:05;6.27;;;3.80;;
13641;SDS011;6894;52.196;9.904;2023-09-19T03:39:32;4.03;;;3.63;;
13641;SDS011;6894;52.196;9.904;2023-09-19T03:41:59;4.80;;;4.27;;
13641;SDS011;6894;52.196;9.904;2023-09-19T03:44:29;6.73;;;3.93;;
13641;SDS011;6894;52.196;9.904;2023-09-19T03:46:56;5.33;;;4.00;;
13641;SDS011;6894;52.196;9.904;2023-09-19T03:49:23;5.20;;;3.87;;
13641;SDS011;6894;52.196;9.904;2023-09-19T03:51:49;6.30;;;4.57;;
13641;SDS011;6894;52.196;9.904;2023-09-19T03:54:16;5.83;;;4.80;;
13641;SDS011;6894;52.196;9.904;2023-09-19T03:56:44;7.13;;;4.60;;
13641;SDS011;6894;52.196;9.904;2023-09-19T03:59:11;7.13;;;4.70;;
13641;SDS011;6894;52.196;9.904;2023-09-19T04:01:40;7.90;;;4.73;;
13641;SDS011;6894;52.196;9.904;2023-09-19T04:04:06;5.93;;;5.37;;
13641;SDS011;6894;52.196;9.904;2023-09-19T04:06:34;5.00;;;4.50;;
13641;SDS011;6894;52.196;9.904;2023-09-19T04:09:01;8.90;;;4.93;;
13641;SDS011;6894;52.196;9.904;2023-09-19T04:11:29;8.13;;;4.93;;
13641;SDS011;6894;52.196;9.904;2023-09-19T04:13:56;10.87;;;5.00;;
13641;SDS011;6894;52.196;9.904;2023-09-19T04:16:22;5.13;;;4.63;;
13641;SDS011;6894;52.196;9.904;2023-09-19T04:18:50;7.33;;;5.07;;
13641;SDS011;6894;52.196;9.904;2023-09-19T04:21:17;6.30;;;4.93;;
13641;SDS011;6894;52.196;9.904;2023-09-19T04:23:44;7.73;;;5.00;;
13641;SDS011;6894;52.196;9.904;2023-09-19T04:26:11;6.07;;;4.67;;
13641;SDS011;6894;52.196;9.904;2023-09-19T04:28:38;6.97;;;5.13;;
13641;SDS011;6894;52.196;9.904;2023-09-19T04:31:05;9.60;;;4.87;;
13641;SDS011;6894;52.196;9.904;2023-09-19T04:33:33;11.70;;;4.70;;
13641;SDS011;6894;52.196;9.904;2023-09-19T04:36:02;8.30;;;4.83;;
13641;SDS011;6894;52.196;9.904;2023-09-19T04:38:30;7.33;;;4.50;;
13641;SDS011;6894;52.196;9.904;2023-09-19T04:40:57;5.80;;;4.43;;
13641;SDS011;6894;52.196;9.904;2023-09-19T04:43:24;5.03;;;4.20;;
13641;SDS011;6894;52.196;9.904;2023-09-19T04:45:51;4.70;;;4.10;;
13641;SDS011;6894;52.196;9.904;2023-09-19T04:48:20;5.73;;;4.87;;
13641;SDS011;6894;52.196;9.904;2023-09-19T04:50:49;5.97;;;4.10;;
13641;SDS011;6894;52.196;9.904;2023-09-19T04:53:17;5.53;;;4.20;;
13641;SDS011;6894;52.196;9.904;2023-09-19T04:55:45;7.50;;;4.33;;
13641;SDS011;6894;52.196;9.904;2023-09-19T04:58:17;5.33;;;3.83;;
13641;SDS011;6894;52.196;9.904;2023-09-19T05:00:44;5.70;;;3.87;;
13641;SDS011;6894;52.196;9.904;2023-09-19T05:03:11;8.30;;;4.53;;
13641;SDS011;6894;52.196;9.904;2023-09-19T05:05:37;8.20;;;4.00;;
13641;SDS011;6894;52.196;9.904;2023-09-19T05:08:07;8.83;;;4.27;;
13641;SDS011;6894;52.196;9.904;2023-09-19T05:10:36;8.80;;;4.73;;
13641;SDS011;6894;52.196;9.904;2023-09-19T05:13:03;6.10;;;3.07;;
13641;SDS011;6894;52.196;9.904;2023-09-19T05:15:32;4.80;;;3.70;;
13641;SDS011;6894;52.196;9.904;2023-09-19T05:17:59;7.03;;;4.03;;
13641;SDS011;6894;52.196;9.904;2023-09-19T05:20:25;7.47;;;4.30;;
13641;SDS011;6894;52.196;9.904;2023-09-19T05:22:57;6.03;;;4.17;;
13641;SDS011;6894;52.196;9.904;2023-09-19T05:25:26;6.80;;;4.20;;
13641;SDS011;6894;52.196;9.904;2023-09-19T05:27:55;10.30;;;4.83;;
13641;SDS011;6894;52.196;9.904;2023-09-19T05:30:23;6.93;;;3.83;;
13641;SDS011;6894;52.196;9.904;2023-09-19T05:32:52;10.00;;;3.93;;
13641;SDS011;6894;52.196;9.904;2023-09-19T05:35:20;9.73;;;4.50;;
13641;SDS011;6894;52.196;9.904;2023-09-19T05:37:47;7.63;;;3.87;;
13641;SDS011;6894;52.196;9.904;2023-09-19T05:40:16;6.80;;;4.43;;
13641;SDS011;6894;52.196;9.904;2023-09-19T05:42:42;10.73;;;4.30;;
13641;SDS011;6894;52.196;9.904;2023-09-19T05:45:11;8.67;;;4.33;;
13641;SDS011;6894;52.196;9.904;2023-09-19T05:47:38;5.63;;;4.07;;
13641;SDS011;6894;52.196;9.904;2023-09-19T05:50:06;10.97;;;5.30;;
13641;SDS011;6894;52.196;9.904;2023-09-19T05:52:34;10.10;;;4.70;;
13641;SDS011;6894;52.196;9.904;2023-09-19T05:55:02;8.43;;;4.40;;
13641;SDS011;6894;52.196;9.904;2023-09-19T05:57:30;9.00;;;5.07;;
13641;SDS011;6894;52.196;9.904;2023-09-19T05:59:57;9.47;;;3.53;;
13641;SDS011;6894;52.196;9.904;2023-09-19T06:02:25;7.03;;;4.50;;
13641;SDS011;6894;52.196;9.904;2023-09-19T06:04:53;8.57;;;3.70;;
13641;SDS011;6894;52.196;9.904;2023-09-19T06:07:20;10.03;;;4.10;;
13641;SDS011;6894;52.196;9.904;2023-09-19T06:09:48;6.80;;;3.07;;
13641;SDS011;6894;52.196;9.904;2023-09-19T06:12:15;9.40;;;3.73;;
13641;SDS011;6894;52.196;9.904;2023-09-19T06:14:42;7.73;;;3.47;;
13641;SDS011;6894;52.196;9.904;2023-09-19T06:17:09;7.00;;;3.17;;
13641;SDS011;6894;52.196;9.904;2023-09-19T06:19:37;6.70;;;3.37;;
13641;SDS011;6894;52.196;9.904;2023-09-19T06:22:03;9.70;;;3.57;;
13641;SDS011;6894;52.196;9.904;2023-09-19T06:24:30;8.80;;;3.43;;
13641;SDS011;6894;52.196;9.904;2023-09-19T06:26:57;7.50;;;4.13;;
13641;SDS011;6894;52.196;9.904;2023-09-19T06:29:26;5.87;;;3.33;;
13641;SDS011;6894;52.196;9.904;2023-09-19T06:31:52;7.83;;;3.60;;
13641;SDS011;6894;52.196;9.904;2023-09-19T06:34:20;7.07;;;3.20;;
13641;SDS011;6894;52.196;9.904;2023-09-19T06:36:49;6.67;;;3.60;;
13641;SDS011;6894;52.196;9.904;2023-09-19T06:39:17;7.60;;;2.60;;
13641;SDS011;6894;52.196;9.904;2023-09-19T06:41:44;9.77;;;4.13;;
13641;SDS011;6894;52.196;9.904;2023-09-19T06:44:11;8.27;;;3.37;;
13641;SDS011;6894;52.196;9.904;2023-09-19T06:46:37;8.70;;;3.73;;
13641;SDS011;6894;52.196;9.904;2023-09-19T06:49:05;8.37;;;3.40;;
13641;SDS011;6894;52.196;9.904;2023-09-19T06:51:32;8.37;;;3.00;;
13641;SDS011;6894;52.196;9.904;2023-09-19T06:54:02;6.13;;;2.63;;
13641;SDS011;6894;52.196;9.904;2023-09-19T06:56:30;12.23;;;2.87;;
13641;SDS011;6894;52.196;9.904;2023-09-19T06:58:57;6.67;;;3.97;;
13641;SDS011;6894;52.196;9.904;2023-09-19T07:01:24;7.13;;;3.50;;
13641;SDS011;6894;52.196;9.904;2023-09-19T07:03:51;7.50;;;2.40;;
13641;SDS011;6894;52.196;9.904;2023-09-19T07:06:18;7.57;;;2.37;;
13641;SDS011;6894;52.196;9.904;2023-09-19T07:08:45;8.47;;;2.53;;
13641;SDS011;6894;52.196;9.904;2023-09-19T07:11:13;6.23;;;2.20;;
13641;SDS011;6894;52.196;9.904;2023-09-19T07:13:40;6.17;;;1.60;;
13641;SDS011;6894;52.196;9.904;2023-09-19T07:16:07;9.73;;;2.37;;
13641;SDS011;6894;52.196;9.904;2023-09-19T07:18:35;12.40;;;2.13;;
13641;SDS011;6894;52.196;9.904;2023-09-19T07:21:02;8.93;;;2.40;;
13641;SDS011;6894;52.196;9.904;2023-09-19T07:23:31;5.63;;;2.17;;
13641;SDS011;6894;52.196;9.904;2023-09-19T07:26:00;6.97;;;1.93;;
13641;SDS011;6894;52.196;9.904;2023-09-19T07:28:28;8.20;;;2.00;;
13641;SDS011;6894;52.196;9.904;2023-09-19T07:30:54;6.63;;;2.00;;
13641;SDS011;6894;52.196;9.904;2023-09-19T07:33:24;8.10;;;2.33;;
13641;SDS011;6894;52.196;9.904;2023-09-19T07:35:53;8.87;;;2.33;;
13641;SDS011;6894;52.196;9.904;2023-09-19T07:38:20;9.10;;;1.70;;
13641;SDS011;6894;52.196;9.904;2023-09-19T07:40:47;10.43;;;2.17;;
13641;SDS011;6894;52.196;9.904;2023-09-19T07:43:14;7.83;;;1.30;;
13641;SDS011;6894;52.196;9.904;2023-09-19T07:45:44;8.47;;;2.13;;
13641;SDS011;6894;52.196;9.904;2023-09-19T07:48:13;6.93;;;1.63;;
13641;SDS011;6894;52.196;9.904;2023-09-19T07:50:40;6.17;;;2.27;;
13641;SDS011;6894;52.196;9.904;2023-09-19T07:53:08;4.77;;;1.53;;
13641;SDS011;6894;52.196;9.904;2023-09-19T07:55:38;7.10;;;1.73;;
13641;SDS011;6894;52.196;9.904;2023-09-19T07:58:06;6.77;;;1.60;;
13641;SDS011;6894;52.196;9.904;2023-09-19T08:00:33;8.47;;;1.70;;
13641;SDS011;6894;52.196;9.904;2023-09-19T08:03:01;4.63;;;1.33;;
13641;SDS011;6894;52.196;9.904;2023-09-19T08:05:29;8.43;;;2.20;;
13641;SDS011;6894;52.196;9.904;2023-09-19T08:07:55;5.30;;;1.87;;
13641;SDS011;6894;52.196;9.904;2023-09-19T08:10:24;4.63;;;1.40;;
13641;SDS011;6894;52.196;9.904;2023-09-19T08:12:52;6.67;;;1.83;;
13641;SDS011;6894;52.196;9.904;2023-09-19T08:15:23;6.73;;;1.50;;
13641;SDS011;6894;52.196;9.904;2023-09-19T08:17:50;6.43;;;1.83;;
13641;SDS011;6894;52.196;9.904;2023-09-19T08:20:18;4.77;;;1.40;;
13641;SDS011;6894;52.196;9.904;2023-09-19T08:22:46;5.23;;;1.43;;
13641;SDS011;6894;52.196;9.904;2023-09-19T08:25:17;9.60;;;2.13;;
13641;SDS011;6894;52.196;9.904;2023-09-19T08:27:44;6.60;;;1.50;;
13641;SDS011;6894;52.196;9.904;2023-09-19T08:30:13;6.03;;;1.47;;
13641;SDS011;6894;52.196;9.904;2023-09-19T08:32:40;6.30;;;1.63;;
13641;SDS011;6894;52.196;9.904;2023-09-19T08:35:08;5.43;;;1.50;;
13641;SDS011;6894;52.196;9.904;2023-09-19T08:37:36;6.67;;;1.53;;
13641;SDS011;6894;52.196;9.904;2023-09-19T08:40:03;6.00;;;1.57;;
13641;SDS011;6894;52.196;9.904;2023-09-19T08:42:46;4.17;;;1.30;;
13641;SDS011;6894;52.196;9.904;2023-09-19T08:45:14;7.50;;;2.13;;
13641;SDS011;6894;52.196;9.904;2023-09-19T08:47:43;9.70;;;2.20;;
13641;SDS011;6894;52.196;9.904;2023-09-19T08:50:15;4.10;;;1.20;;
13641;SDS011;6894;52.196;9.904;2023-09-19T08:52:46;6.73;;;1.43;;
13641;SDS011;6894;52.196;9.904;2023-09-19T08:55:18;5.60;;;1.80;;
13641;SDS011;6894;52.196;9.904;2023-09-19T08:57:48;5.03;;;1.80;;
13641;SDS011;6894;52.196;9.904;2023-09-19T09:00:17;6.20;;;2.07;;
13641;SDS011;6894;52.196;9.904;2023-09-19T09:02:47;4.43;;;1.60;;
13641;SDS011;6894;52.196;9.904;2023-09-19T09:05:15;5.63;;;1.77;;
13641;SDS011;6894;52.196;9.904;2023-09-19T09:07:49;7.53;;;1.20;;
13641;SDS011;6894;52.196;9.904;2023-09-19T09:10:16;6.53;;;1.73;;
13641;SDS011;6894;52.196;9.904;2023-09-19T09:12:47;5.97;;;1.60;;
13641;SDS011;6894;52.196;9.904;2023-09-19T09:15:14;6.70;;;1.50;;
13641;SDS011;6894;52.196;9.904;2023-09-19T09:17:46;4.57;;;1.60;;
13641;SDS011;6894;52.196;9.904;2023-09-19T09:20:13;3.80;;;1.27;;
13641;SDS011;6894;52.196;9.904;2023-09-19T09:22:44;5.13;;;1.47;;
13641;SDS011;6894;52.196;9.904;2023-09-19T09:25:19;5.83;;;1.43;;
13641;SDS011;6894;52.196;9.904;2023-09-19T09:27:48;3.57;;;1.43;;
13641;SDS011;6894;52.196;9.904;2023-09-19T09:30:32;4.20;;;1.33;;
13641;SDS011;6894;52.196;9.904;2023-09-19T09:33:09;3.97;;;1.33;;
13641;SDS011;6894;52.196;9.904;2023-09-19T09:35:37;4.07;;;1.30;;
13641;SDS011;6894;52.196;9.904;2023-09-19T09:38:14;5.03;;;1.40;;
13641;SDS011;6894;52.196;9.904;2023-09-19T09:40:45;5.87;;;1.30;;
13641;SDS011;6894;52.196;9.904;2023-09-19T09:43:27;8.10;;;1.53;;
13641;SDS011;6894;52.196;9.904;2023-09-19T09:49:00;4.83;;;1.40;;
13641;SDS011;6894;52.196;9.904;2023-09-19T09:51:41;4.67;;;1.60;;
13641;SDS011;6894;52.196;9.904;2023-09-19T09:54:14;5.07;;;1.47;;
13641;SDS011;6894;52.196;9.904;2023-09-19T09:56:54;4.97;;;1.40;;
13641;SDS011;6894;52.196;9.904;2023-09-19T10:02:19;4.60;;;1.60;;
13641;SDS011;6894;52.196;9.904;2023-09-19T10:04:50;6.87;;;1.63;;
13641;SDS011;6894;52.196;9.904;2023-09-19T10:07:27;6.37;;;1.60;;
13641;SDS011;6894;52.196;9.904;2023-09-19T10:10:02;5.10;;;1.47;;
13641;SDS011;6894;52.196;9.904;2023-09-19T10:12:42;5.40;;;2.00;;
13641;SDS011;6894;52.196;9.904;2023-09-19T10:15:11;5.57;;;1.40;;
13641;SDS011;6894;52.196;9.904;2023-09-19T10:17:42;4.47;;;1.53;;
13641;SDS011;6894;52.196;9.904;2023-09-19T10:20:11;6.10;;;1.77;;
13641;SDS011;6894;52.196;9.904;2023-09-19T10:22:49;6.47;;;1.90;;
13641;SDS011;6894;52.196;9.904;2023-09-19T10:25:25;5.03;;;1.77;;
13641;SDS011;6894;52.196;9.904;2023-09-19T10:27:53;6.87;;;2.10;;
13641;SDS011;6894;52.196;9.904;2023-09-19T10:30:22;5.37;;;1.83;;
13641;SDS011;6894;52.196;9.904;2023-09-19T10:32:53;3.57;;;1.47;;
13641;SDS011;6894;52.196;9.904;2023-09-19T10:35:25;5.23;;;1.63;;
13641;SDS011;6894;52.196;9.904;2023-09-19T10:37:54;5.77;;;1.90;;
13641;SDS011;6894;52.196;9.904;2023-09-19T10:40:21;5.80;;;1.87;;
13641;SDS011;6894;52.196;9.904;2023-09-19T10:42:53;5.67;;;1.70;;
13641;SDS011;6894;52.196;9.904;2023-09-19T10:45:23;4.30;;;1.83;;
13641;SDS011;6894;52.196;9.904;2023-09-19T10:47:51;6.53;;;1.73;;
13641;SDS011;6894;52.196;9.904;2023-09-19T10:50:19;6.27;;;1.80;;
13641;SDS011;6894;52.196;9.904;2023-09-19T10:52:47;6.60;;;1.77;;
13641;SDS011;6894;52.196;9.904;2023-09-19T10:55:15;4.63;;;1.80;;
13641;SDS011;6894;52.196;9.904;2023-09-19T10:57:44;7.33;;;1.73;;
13641;SDS011;6894;52.196;9.904;2023-09-19T11:00:13;4.20;;;1.97;;
13641;SDS011;6894;52.196;9.904;2023-09-19T11:03:16;5.90;;;2.20;;
13641;SDS011;6894;52.196;9.904;2023-09-19T11:05:59;5.77;;;1.80;;
13641;SDS011;6894;52.196;9.904;2023-09-19T11:11:48;5.40;;;1.80;;
13641;SDS011;6894;52.196;9.904;2023-09-19T11:14:28;8.40;;;1.83;;
13641;SDS011;6894;52.196;9.904;2023-09-19T11:20:17;7.43;;;2.20;;
13641;SDS011;6894;52.196;9.904;2023-09-19T11:25:49;10.10;;;1.67;;
13641;SDS011;6894;52.196;9.904;2023-09-19T11:28:28;5.87;;;1.73;;
13641;SDS011;6894;52.196;9.904;2023-09-19T11:30:56;3.50;;;1.53;;
13641;SDS011;6894;52.196;9.904;2023-09-19T11:33:25;4.93;;;2.40;;
13641;SDS011;6894;52.196;9.904;2023-09-19T11:35:58;8.90;;;2.20;;
13641;SDS011;6894;52.196;9.904;2023-09-19T11:41:40;6.03;;;2.00;;
13641;SDS011;6894;52.196;9.904;2023-09-19T11:47:00;6.23;;;2.10;;
13641;SDS011;6894;52.196;9.904;2023-09-19T11:49:30;7.00;;;1.90;;
13641;SDS011;6894;52.196;9.904;2023-09-19T11:51:59;7.00;;;2.10;;
13641;SDS011;6894;52.196;9.904;2023-09-19T11:54:29;13.87;;;2.20;;
13641;SDS011;6894;52.196;9.904;2023-09-19T11:56:57;6.53;;;2.43;;
13641;SDS011;6894;52.196;9.904;2023-09-19T11:59:25;5.63;;;1.60;;
13641;SDS011;6894;52.196;9.904;2023-09-19T12:01:53;4.80;;;1.67;;
13641;SDS011;6894;52.196;9.904;2023-09-19T12:04:33;7.43;;;1.87;;
13641;SDS011;6894;52.196;9.904;2023-09-19T12:07:03;5.97;;;1.60;;
13641;SDS011;6894;52.196;9.904;2023-09-19T12:09:30;5.50;;;1.80;;
13641;SDS011;6894;52.196;9.904;2023-09-19T12:11:57;4.93;;;2.00;;
13641;SDS011;6894;52.196;9.904;2023-09-19T12:14:24;2.80;;;1.57;;
13641;SDS011;6894;52.196;9.904;2023-09-19T12:16:53;5.40;;;1.73;;
13641;SDS011;6894;52.196;9.904;2023-09-19T12:19:21;6.30;;;2.70;;
13641;SDS011;6894;52.196;9.904;2023-09-19T12:21:56;6.10;;;1.70;;
13641;SDS011;6894;52.196;9.904;2023-09-19T12:24:24;5.63;;;1.80;;
13641;SDS011;6894;52.196;9.904;2023-09-19T12:26:54;6.83;;;2.10;;
13641;SDS011;6894;52.196;9.904;2023-09-19T12:29:29;7.27;;;2.27;;
13641;SDS011;6894;52.196;9.904;2023-09-19T12:31:57;6.33;;;1.87;;
13641;SDS011;6894;52.196;9.904;2023-09-19T12:34:29;4.27;;;1.93;;
13641;SDS011;6894;52.196;9.904;2023-09-19T12:37:11;6.67;;;1.57;;
13641;SDS011;6894;52.196;9.904;2023-09-19T12:39:41;4.03;;;1.80;;
13641;SDS011;6894;52.196;9.904;2023-09-19T12:42:13;5.77;;;2.00;;
13641;SDS011;6894;52.196;9.904;2023-09-19T12:44:42;6.10;;;1.80;;
13641;SDS011;6894;52.196;9.904;2023-09-19T12:47:10;5.10;;;1.87;;
13641;SDS011;6894;52.196;9.904;2023-09-19T12:52:40;5.90;;;2.10;;
13641;SDS011;6894;52.196;9.904;2023-09-19T12:55:18;3.73;;;1.60;;
13641;SDS011;6894;52.196;9.904;2023-09-19T12:57:54;8.57;;;2.17;;
13641;SDS011;6894;52.196;9.904;2023-09-19T13:00:30;4.47;;;2.00;;
13641;SDS011;6894;52.196;9.904;2023-09-19T13:03:12;6.93;;;1.90;;
13641;SDS011;6894;52.196;9.904;2023-09-19T13:05:50;4.37;;;1.60;;
13641;SDS011;6894;52.196;9.904;2023-09-19T13:08:21;4.50;;;1.80;;
13641;SDS011;6894;52.196;9.904;2023-09-19T13:11:04;7.00;;;1.87;;
13641;SDS011;6894;52.196;9.904;2023-09-19T13:13:39;3.10;;;1.53;;
13641;SDS011;6894;52.196;9.904;2023-09-19T13:16:09;4.03;;;1.73;;
13641;SDS011;6894;52.196;9.904;2023-09-19T13:18:46;7.00;;;1.80;;
13641;SDS011;6894;52.196;9.904;2023-09-19T13:21:16;3.67;;;1.80;;
13641;SDS011;6894;52.196;9.904;2023-09-19T13:23:52;7.60;;;2.40;;
13641;SDS011;6894;52.196;9.904;2023-09-19T13:26:24;3.50;;;2.07;;
13641;SDS011;6894;52.196;9.904;2023-09-19T13:28:50;7.70;;;2.17;;
13641;SDS011;6894;52.196;9.904;2023-09-19T13:31:17;4.87;;;1.40;;
13641;SDS011;6894;52.196;9.904;2023-09-19T13:33:44;4.97;;;1.90;;
13641;SDS011;6894;52.196;9.904;2023-09-19T13:36:11;3.07;;;1.60;;
13641;SDS011;6894;52.196;9.904;2023-09-19T13:38:39;7.07;;;1.80;;
13641;SDS011;6894;52.196;9.904;2023-09-19T13:41:09;5.63;;;1.80;;
13641;SDS011;6894;52.196;9.904;2023-09-19T13:43:36;6.37;;;1.80;;
13641;SDS011;6894;52.196;9.904;2023-09-19T13:46:03;15.37;;;3.00;;
13641;SDS011;6894;52.196;9.904;2023-09-19T13:48:32;5.57;;;1.63;;
13641;SDS011;6894;52.196;9.904;2023-09-19T13:51:01;6.83;;;2.17;;
13641;SDS011;6894;52.196;9.904;2023-09-19T13:53:28;5.83;;;2.00;;
13641;SDS011;6894;52.196;9.904;2023-09-19T13:55:55;3.20;;;1.70;;
13641;SDS011;6894;52.196;9.904;2023-09-19T14:01:06;5.37;;;2.00;;
13641;SDS011;6894;52.196;9.904;2023-09-19T14:03:37;3.43;;;1.53;;
13641;SDS011;6894;52.196;9.904;2023-09-19T14:06:04;5.97;;;2.17;;
13641;SDS011;6894;52.196;9.904;2023-09-19T14:08:30;3.73;;;1.53;;
13641;SDS011;6894;52.196;9.904;2023-09-19T14:10:58;3.50;;;1.73;;
13641;SDS011;6894;52.196;9.904;2023-09-19T14:13:25;5.00;;;1.63;;
13641;SDS011;6894;52.196;9.904;2023-09-19T14:15:53;4.27;;;1.50;;
13641;SDS011;6894;52.196;9.904;2023-09-19T14:18:20;4.97;;;2.17;;
13641;SDS011;6894;52.196;9.904;2023-09-19T14:20:47;8.00;;;1.77;;
13641;SDS011;6894;52.196;9.904;2023-09-19T14:23:15;5.20;;;1.77;;
13641;SDS011;6894;52.196;9.904;2023-09-19T14:25:41;5.37;;;1.60;;
13641;SDS011;6894;52.196;9.904;2023-09-19T14:28:08;4.07;;;1.47;;
13641;SDS011;6894;52.196;9.904;2023-09-19T14:30:35;5.80;;;2.30;;
13641;SDS011;6894;52.196;9.904;2023-09-19T14:33:03;4.60;;;1.97;;
13641;SDS011;6894;52.196;9.904;2023-09-19T14:35:31;5.07;;;1.63;;
13641;SDS011;6894;52.196;9.904;2023-09-19T14:37:57;6.20;;;1.80;;
13641;SDS011;6894;52.196;9.904;2023-09-19T14:40:24;3.27;;;1.60;;
13641;SDS011;6894;52.196;9.904;2023-09-19T14:42:52;4.37;;;2.00;;
13641;SDS011;6894;52.196;9.904;2023-09-19T14:45:18;5.43;;;1.70;;
13641;SDS011;6894;52.196;9.904;2023-09-19T14:47:45;4.70;;;1.57;;
13641;SDS011;6894;52.196;9.904;2023-09-19T14:50:14;4.63;;;1.40;;
13641;SDS011;6894;52.196;9.904;2023-09-19T14:52:40;2.97;;;1.37;;
13641;SDS011;6894;52.196;9.904;2023-09-19T14:55:07;3.03;;;1.50;;
13641;SDS011;6894;52.196;9.904;2023-09-19T14:57:39;4.43;;;1.37;;
13641;SDS011;6894;52.196;9.904;2023-09-19T15:00:07;4.30;;;1.63;;
13641;SDS011;6894;52.196;9.904;2023-09-19T15:02:37;3.13;;;1.23;;
13641;SDS011;6894;52.196;9.904;2023-09-19T15:05:05;3.27;;;1.30;;
13641;SDS011;6894;52.196;9.904;2023-09-19T15:07:34;3.00;;;1.40;;
13641;SDS011;6894;52.196;9.904;2023-09-19T15:10:02;3.40;;;1.50;;
13641;SDS011;6894;52.196;9.904;2023-09-19T15:12:31;3.57;;;1.23;;
13641;SDS011;6894;52.196;9.904;2023-09-19T15:15:00;2.17;;;1.00;;
13641;SDS011;6894;52.196;9.904;2023-09-19T15:17:26;4.37;;;1.40;;
13641;SDS011;6894;52.196;9.904;2023-09-19T15:19:53;3.50;;;1.40;;
13641;SDS011;6894;52.196;9.904;2023-09-19T15:22:20;5.13;;;1.10;;
13641;SDS011;6894;52.196;9.904;2023-09-19T15:24:48;3.07;;;1.23;;
13641;SDS011;6894;52.196;9.904;2023-09-19T15:27:16;2.93;;;1.20;;
13641;SDS011;6894;52.196;9.904;2023-09-19T15:29:44;4.77;;;1.30;;
13641;SDS011;6894;52.196;9.904;2023-09-19T15:32:11;3.43;;;1.20;;
13641;SDS011;6894;52.196;9.904;2023-09-19T15:34:38;4.33;;;1.73;;
13641;SDS011;6894;52.196;9.904;2023-09-19T15:37:05;4.03;;;1.60;;
13641;SDS011;6894;52.196;9.904;2023-09-19T15:39:31;3.83;;;1.63;;